Time;durP1;ratioP1;P1;durP2;ratioP2;P2;SDS_P1;SDS_P2;PMS_P1;PMS_P2;Temp;Humidity;BMP_temperature;BMP_pressure;BME280_temperature;BME280_humidity;BME280_pressure;Samples;Min_cycle;Max_cycle;Signal;HPM_P1;HPM_P2
2021/07/07 00:00:55;;;;;;;0.70;0.50;;;18.10;99.90;;;;;;5094743;28;20468;-57
2021/07/07 00:03:22;;;;;;;0.80;0.50;;;17.90;99.90;;;;;;5096273;28;20509;-57
2021/07/07 00:05:49;;;;;;;0.80;0.50;;;17.80;99.90;;;;;;5095065;28;20533;-56
2021/07/07 00:08:16;;;;;;;0.80;0.50;;;17.90;99.90;;;;;;5096492;28;20453;-57
2021/07/07 00:10:43;;;;;;;1.00;0.50;;;17.90;99.90;;;;;;5094959;28;20525;-58
2021/07/07 00:13:10;;;;;;;1.50;0.50;;;17.80;99.90;;;;;;5086909;28;20446;-56
2021/07/07 00:15:37;;;;;;;0.70;0.50;;;17.80;99.90;;;;;;5082715;28;20491;-57
2021/07/07 00:18:08;;;;;;;0.90;0.45;;;17.80;99.90;;;;;;5096609;28;20510;-57
2021/07/07 00:20:38;;;;;;;0.60;0.32;;;17.80;99.90;;;;;;5094538;28;20426;-56
2021/07/07 00:23:05;;;;;;;0.70;0.40;;;17.80;99.90;;;;;;5088012;28;20719;-57
2021/07/07 00:25:32;;;;;;;1.70;0.40;;;17.80;99.90;;;;;;5076708;28;20520;-57
2021/07/07 00:27:59;;;;;;;1.10;0.50;;;17.90;99.90;;;;;;5075110;28;20791;-57
2021/07/07 00:30:27;;;;;;;0.88;0.50;;;18.00;99.90;;;;;;5075782;28;20827;-58
2021/07/07 00:32:54;;;;;;;0.70;0.50;;;18.00;99.90;;;;;;5075952;28;20424;-58
2021/07/07 00:35:23;;;;;;;0.60;0.50;;;18.00;99.90;;;;;;5075121;28;20463;-57
2021/07/07 00:37:50;;;;;;;1.30;0.50;;;18.10;99.90;;;;;;5074872;28;20731;-58
2021/07/07 00:40:17;;;;;;;1.52;0.52;;;18.10;99.90;;;;;;5090244;28;20459;-57
2021/07/07 00:42:44;;;;;;;1.40;0.50;;;18.10;99.90;;;;;;5076250;28;20448;-57
2021/07/07 00:45:12;;;;;;;0.80;0.60;;;18.10;99.90;;;;;;5092814;28;20911;-56
2021/07/07 00:47:39;;;;;;;1.30;0.60;;;18.00;99.90;;;;;;5082805;28;20466;-52
2021/07/07 00:50:08;;;;;;;2.28;0.70;;;17.80;99.90;;;;;;5092522;28;20916;-50
2021/07/07 00:52:36;;;;;;;0.70;0.55;;;17.60;99.90;;;;;;5083832;28;20526;-54
2021/07/07 00:55:05;;;;;;;0.80;0.50;;;17.50;99.90;;;;;;5082361;28;20453;-54
2021/07/07 00:57:35;;;;;;;0.88;0.55;;;17.40;99.90;;;;;;5095914;28;20513;-53
2021/07/07 01:00:05;;;;;;;1.17;0.60;;;17.40;99.90;;;;;;5094551;28;20433;-55
2021/07/07 01:02:33;;;;;;;0.90;0.70;;;17.40;99.90;;;;;;5080332;28;20470;-54
2021/07/07 01:05:00;;;;;;;1.13;0.70;;;17.50;99.90;;;;;;5082095;28;20794;-51
2021/07/07 01:07:27;;;;;;;2.00;0.60;;;17.50;99.90;;;;;;5086668;28;20806;-51
2021/07/07 01:09:55;;;;;;;0.80;0.60;;;17.40;99.90;;;;;;5075238;28;20485;-51
2021/07/07 01:12:22;;;;;;;1.60;0.60;;;17.40;99.90;;;;;;5089235;28;20433;-52
2021/07/07 01:14:49;;;;;;;1.10;0.70;;;17.50;99.90;;;;;;5095423;28;20500;-55
2021/07/07 01:17:19;;;;;;;1.42;0.60;;;17.50;99.90;;;;;;5080455;28;20750;-56
2021/07/07 01:19:46;;;;;;;1.00;0.70;;;17.50;99.90;;;;;;5074060;28;20428;-55
2021/07/07 01:22:14;;;;;;;0.80;0.60;;;17.50;99.90;;;;;;5075656;28;20463;-56
2021/07/07 01:24:41;;;;;;;0.95;0.60;;;17.60;99.90;;;;;;5082331;28;20458;-56
2021/07/07 01:27:08;;;;;;;0.90;0.50;;;17.60;99.90;;;;;;5093629;28;20468;-56
2021/07/07 01:29:35;;;;;;;1.02;0.70;;;17.60;99.90;;;;;;5094522;28;20417;-54
2021/07/07 01:32:02;;;;;;;0.90;0.50;;;17.70;99.90;;;;;;5089316;28;20893;-53
2021/07/07 01:34:29;;;;;;;2.50;0.60;;;17.60;99.90;;;;;;5075083;28;20416;-55
2021/07/07 01:36:56;;;;;;;1.00;0.60;;;17.70;99.90;;;;;;5074687;28;20518;-56
2021/07/07 01:39:24;;;;;;;1.13;0.68;;;17.80;99.90;;;;;;5075065;28;20451;-55
2021/07/07 01:41:51;;;;;;;0.80;0.60;;;17.90;99.90;;;;;;5093944;28;20464;-54
2021/07/07 01:44:18;;;;;;;1.00;0.70;;;17.80;99.90;;;;;;5080953;28;20556;-55
2021/07/07 01:46:45;;;;;;;1.02;0.70;;;17.60;99.90;;;;;;5077894;28;20941;-51
2021/07/07 01:49:11;;;;;;;1.27;0.70;;;17.50;99.90;;;;;;5094124;28;20500;-53
2021/07/07 01:51:38;;;;;;;0.90;0.60;;;17.40;99.90;;;;;;5092164;28;20494;-57
2021/07/07 01:54:05;;;;;;;1.00;0.70;;;17.30;99.90;;;;;;5092937;28;20479;-55
2021/07/07 01:56:34;;;;;;;0.90;0.60;;;17.20;99.90;;;;;;5076808;28;20947;-56
2021/07/07 01:59:01;;;;;;;1.10;0.60;;;17.30;99.90;;;;;;5093335;28;20896;-56
2021/07/07 02:01:28;;;;;;;0.90;0.60;;;17.30;99.90;;;;;;5081118;28;20462;-56
2021/07/07 02:03:54;;;;;;;0.93;0.60;;;17.40;99.90;;;;;;5093731;28;20417;-56
2021/07/07 02:06:21;;;;;;;1.10;0.70;;;17.50;99.90;;;;;;5074808;28;20812;-56
2021/07/07 02:08:48;;;;;;;1.02;0.70;;;17.50;99.90;;;;;;5073657;28;20473;-57
2021/07/07 02:11:15;;;;;;;1.60;0.75;;;17.50;99.90;;;;;;5083713;28;20442;-56
2021/07/07 02:13:44;;;;;;;1.10;0.70;;;17.60;99.90;;;;;;5073530;28;20526;-51
2021/07/07 02:16:10;;;;;;;1.00;0.70;;;17.70;99.90;;;;;;5089007;28;20598;-55
2021/07/07 02:18:37;;;;;;;1.80;0.50;;;17.70;99.90;;;;;;5094024;28;20479;-52
2021/07/07 02:21:05;;;;;;;1.20;0.70;;;17.70;99.90;;;;;;5088071;28;20431;-54
2021/07/07 02:23:32;;;;;;;0.90;0.60;;;17.70;99.90;;;;;;5073579;28;20875;-56
2021/07/07 02:25:59;;;;;;;0.93;0.60;;;17.80;99.90;;;;;;5088454;28;20804;-54
2021/07/07 02:28:26;;;;;;;0.90;0.60;;;17.70;99.90;;;;;;5093357;28;20508;-56
2021/07/07 02:30:55;;;;;;;0.80;0.50;;;17.60;99.90;;;;;;5080026;28;20814;-55
2021/07/07 02:33:22;;;;;;;1.08;0.70;;;17.60;99.90;;;;;;5093007;28;20690;-56
2021/07/07 02:35:50;;;;;;;1.20;0.70;;;17.60;99.90;;;;;;5079430;28;20455;-54
2021/07/07 02:38:19;;;;;;;1.90;0.80;;;17.50;99.90;;;;;;5073647;28;20510;-56
2021/07/07 02:40:46;;;;;;;1.42;0.80;;;17.50;99.90;;;;;;5083665;28;20433;-58
2021/07/07 02:43:14;;;;;;;1.60;0.80;;;17.50;99.90;;;;;;5077532;28;20443;-56
2021/07/07 02:45:42;;;;;;;1.10;0.80;;;17.50;99.90;;;;;;5082434;28;20431;-57
2021/07/07 02:48:12;;;;;;;1.50;0.90;;;17.50;99.90;;;;;;5083297;28;20791;-57
2021/07/07 02:50:39;;;;;;;1.20;0.80;;;17.40;99.90;;;;;;5096790;28;20425;-57
2021/07/07 02:53:07;;;;;;;1.30;0.80;;;17.30;99.90;;;;;;5075390;28;20910;-56
2021/07/07 02:55:34;;;;;;;1.70;0.73;;;17.50;99.90;;;;;;5085606;28;20433;-57
2021/07/07 02:58:02;;;;;;;0.95;0.70;;;17.50;99.90;;;;;;5093325;28;20455;-55
2021/07/07 03:00:32;;;;;;;0.90;0.60;;;17.60;99.90;;;;;;5077475;28;20431;-55
2021/07/07 03:03:01;;;;;;;0.90;0.60;;;17.60;99.90;;;;;;5096020;28;20504;-56
2021/07/07 03:05:30;;;;;;;1.10;0.60;;;17.50;99.90;;;;;;5089058;28;20922;-57
2021/07/07 03:07:57;;;;;;;1.30;0.50;;;17.50;99.90;;;;;;5077723;28;20510;-52
2021/07/07 03:10:25;;;;;;;1.30;0.68;;;17.60;99.90;;;;;;5077827;28;20511;-55
2021/07/07 03:12:52;;;;;;;1.40;0.80;;;17.60;99.90;;;;;;5077490;28;20971;-55
2021/07/07 03:15:18;;;;;;;1.00;0.63;;;17.50;99.90;;;;;;5082788;28;20449;-54
2021/07/07 03:17:45;;;;;;;1.00;0.70;;;17.40;99.90;;;;;;5097432;28;20518;-54
2021/07/07 03:20:13;;;;;;;0.90;0.60;;;17.40;99.90;;;;;;5093158;28;20510;-53
2021/07/07 03:22:41;;;;;;;1.00;0.60;;;17.40;99.90;;;;;;5077248;28;20411;-53
2021/07/07 03:25:10;;;;;;;1.00;0.70;;;17.40;99.90;;;;;;5080965;28;20744;-53
2021/07/07 03:27:36;;;;;;;1.10;0.70;;;17.60;99.90;;;;;;5097126;28;20878;-52
2021/07/07 03:30:05;;;;;;;1.40;0.70;;;17.50;99.90;;;;;;5097577;28;20444;-56
2021/07/07 03:32:32;;;;;;;1.08;0.70;;;17.40;99.90;;;;;;5096181;28;20465;-56
2021/07/07 03:34:59;;;;;;;1.00;0.60;;;17.50;99.90;;;;;;5097065;28;20789;-56
2021/07/07 03:37:26;;;;;;;1.20;0.60;;;17.40;99.90;;;;;;5096835;28;20520;-55
2021/07/07 03:39:54;;;;;;;1.00;0.70;;;17.50;99.90;;;;;;5095634;28;20520;-57
2021/07/07 03:42:21;;;;;;;0.97;0.60;;;17.40;99.90;;;;;;5095685;28;20422;-56
2021/07/07 03:44:48;;;;;;;1.10;0.70;;;17.50;99.90;;;;;;5094663;28;20505;-55
2021/07/07 03:47:15;;;;;;;0.85;0.70;;;17.30;99.90;;;;;;5095819;28;20516;-56
2021/07/07 03:49:42;;;;;;;1.00;0.70;;;17.40;99.90;;;;;;5095905;28;20496;-55
2021/07/07 03:52:09;;;;;;;0.90;0.70;;;17.30;99.90;;;;;;5076409;28;20493;-57
2021/07/07 03:54:36;;;;;;;0.80;0.60;;;17.30;99.90;;;;;;5075482;28;20472;-57
2021/07/07 03:57:04;;;;;;;0.90;0.50;;;17.30;99.90;;;;;;5077319;28;20475;-55
2021/07/07 03:59:31;;;;;;;0.90;0.60;;;17.40;99.90;;;;;;5076296;28;20786;-53
2021/07/07 04:01:58;;;;;;;0.90;0.70;;;17.40;99.90;;;;;;5092980;28;20453;-58
2021/07/07 04:04:25;;;;;;;1.20;0.70;;;17.40;99.90;;;;;;5095744;28;20508;-55
2021/07/07 04:06:57;;;;;;;1.05;0.70;;;17.40;99.90;;;;;;5087750;28;20427;-57
2021/07/07 04:09:25;;;;;;;1.00;0.70;;;17.30;99.90;;;;;;5076252;28;20446;-58
2021/07/07 04:11:51;;;;;;;0.90;0.60;;;17.40;99.90;;;;;;5091332;28;20437;-57
2021/07/07 04:14:23;;;;;;;1.50;0.70;;;17.40;99.90;;;;;;5084207;28;20524;-56
2021/07/07 04:16:51;;;;;;;1.08;0.70;;;17.40;99.90;;;;;;5083924;28;20896;-56
2021/07/07 04:19:18;;;;;;;1.80;0.80;;;17.40;99.90;;;;;;5096425;28;20475;-57
2021/07/07 04:21:45;;;;;;;1.20;0.75;;;17.40;99.90;;;;;;5081224;28;20896;-58
2021/07/07 04:24:12;;;;;;;1.83;0.80;;;17.40;99.90;;;;;;5075934;28;20647;-58
2021/07/07 04:26:39;;;;;;;0.90;0.70;;;17.40;99.90;;;;;;5076887;28;20447;-57
2021/07/07 04:29:06;;;;;;;0.82;0.60;;;17.50;99.90;;;;;;5079122;28;20498;-57
2021/07/07 04:31:35;;;;;;;1.10;0.70;;;17.50;99.90;;;;;;5094273;28;20773;-56
2021/07/07 04:34:02;;;;;;;1.20;0.60;;;17.50;99.90;;;;;;5089998;28;20498;-56
2021/07/07 04:36:30;;;;;;;0.90;0.50;;;17.60;99.90;;;;;;5075339;28;20524;-56
2021/07/07 04:38:56;;;;;;;2.70;0.50;;;17.60;99.90;;;;;;5074504;28;20427;-57
2021/07/07 04:41:24;;;;;;;1.20;0.50;;;17.50;99.90;;;;;;5091797;28;20524;-58
2021/07/07 04:43:51;;;;;;;0.80;0.50;;;17.50;99.90;;;;;;5095630;28;20513;-57
2021/07/07 04:46:17;;;;;;;0.73;0.50;;;17.50;99.90;;;;;;5095337;28;20430;-53
2021/07/07 04:48:46;;;;;;;0.80;0.50;;;17.50;99.90;;;;;;5076368;28;20507;-58
2021/07/07 04:51:14;;;;;;;0.80;0.50;;;17.60;99.90;;;;;;5090486;28;20479;-55
2021/07/07 04:53:41;;;;;;;0.90;0.55;;;17.70;99.90;;;;;;5089128;28;20470;-57
2021/07/07 04:56:09;;;;;;;0.70;0.50;;;17.70;99.90;;;;;;5087577;28;20422;-56
2021/07/07 04:58:37;;;;;;;1.20;0.40;;;17.50;99.90;;;;;;5077248;28;20530;-58
2021/07/07 05:01:04;;;;;;;0.88;0.43;;;17.50;99.90;;;;;;5075712;28;20935;-57
2021/07/07 05:03:31;;;;;;;0.60;0.40;;;17.40;99.90;;;;;;5074605;28;20870;-58
2021/07/07 05:05:59;;;;;;;0.80;0.40;;;17.40;99.90;;;;;;5074723;28;20457;-57
2021/07/07 05:08:26;;;;;;;0.60;0.40;;;17.60;99.90;;;;;;5090221;28;20504;-59
2021/07/07 05:10:53;;;;;;;0.50;0.30;;;17.90;99.90;;;;;;5080777;28;20862;-57
2021/07/07 05:13:21;;;;;;;1.20;0.30;;;18.10;99.90;;;;;;5076113;28;20432;-58
2021/07/07 05:15:48;;;;;;;0.70;0.40;;;18.30;99.90;;;;;;5091377;28;20449;-59
2021/07/07 05:18:15;;;;;;;0.60;0.40;;;18.50;99.90;;;;;;5076596;28;20923;-57
2021/07/07 05:20:43;;;;;;;0.60;0.30;;;18.70;99.90;;;;;;5089702;28;20864;-57
2021/07/07 05:23:11;;;;;;;0.60;0.38;;;18.80;99.90;;;;;;5094584;28;20487;-57
2021/07/07 05:25:40;;;;;;;0.60;0.40;;;18.90;99.90;;;;;;5081657;28;20523;-57
2021/07/07 05:28:08;;;;;;;0.50;0.40;;;18.80;99.90;;;;;;5072439;28;20929;-58
2021/07/07 05:30:36;;;;;;;0.60;0.40;;;18.50;99.90;;;;;;5074045;28;20946;-57
2021/07/07 05:33:03;;;;;;;0.80;0.40;;;18.40;99.90;;;;;;5076750;28;20528;-56
2021/07/07 05:35:32;;;;;;;0.60;0.40;;;18.60;99.90;;;;;;5069568;28;20432;-57
2021/07/07 05:37:58;;;;;;;0.60;0.40;;;18.60;99.90;;;;;;5070952;28;20460;-56
2021/07/07 05:40:27;;;;;;;0.60;0.40;;;18.70;99.90;;;;;;5085111;28;20496;-57
2021/07/07 05:42:54;;;;;;;0.70;0.40;;;18.80;99.90;;;;;;5092483;28;20413;-57
2021/07/07 05:45:22;;;;;;;0.70;0.40;;;19.00;99.90;;;;;;5086926;28;20430;-57
2021/07/07 05:47:49;;;;;;;0.70;0.30;;;19.00;99.90;;;;;;5078447;28;20495;-56
2021/07/07 05:50:17;;;;;;;0.60;0.40;;;19.10;99.90;;;;;;5069279;28;20882;-57
2021/07/07 05:52:44;;;;;;;0.60;0.40;;;19.10;99.90;;;;;;5078520;28;20514;-57
2021/07/07 05:55:12;;;;;;;0.60;0.40;;;19.10;99.90;;;;;;5081344;28;20486;-58
2021/07/07 05:57:40;;;;;;;0.50;0.30;;;19.10;99.90;;;;;;5079243;28;20825;-58
2021/07/07 06:00:10;;;;;;;1.10;0.40;;;19.10;99.90;;;;;;5082566;28;20454;-57
2021/07/07 06:02:37;;;;;;;0.60;0.40;;;19.20;99.90;;;;;;5087096;28;20453;-58
2021/07/07 06:05:06;;;;;;;0.65;0.40;;;19.20;99.90;;;;;;5092344;28;20491;-62
2021/07/07 06:07:33;;;;;;;0.60;0.30;;;19.20;99.90;;;;;;5090197;28;20918;-58
2021/07/07 06:10:00;;;;;;;0.53;0.30;;;19.10;99.90;;;;;;5069569;28;20926;-58
2021/07/07 06:12:27;;;;;;;0.82;0.30;;;19.10;99.90;;;;;;5069017;28;20950;-57
2021/07/07 06:14:55;;;;;;;0.50;0.30;;;19.10;99.90;;;;;;5079768;28;20522;-57
2021/07/07 06:17:22;;;;;;;0.60;0.30;;;19.10;99.90;;;;;;5079129;28;20516;-58
2021/07/07 06:19:49;;;;;;;0.60;0.40;;;19.20;99.90;;;;;;5089922;28;20485;-57
2021/07/07 06:22:16;;;;;;;0.50;0.30;;;19.40;99.90;;;;;;5079895;28;20440;-58
2021/07/07 06:24:43;;;;;;;0.57;0.40;;;19.50;99.90;;;;;;5075789;28;20458;-58
2021/07/07 06:27:10;;;;;;;1.00;0.30;;;19.50;99.90;;;;;;5090358;28;20449;-58
2021/07/07 06:29:37;;;;;;;0.60;0.40;;;19.40;99.90;;;;;;5084625;28;20687;-58
2021/07/07 06:32:06;;;;;;;0.70;0.40;;;19.40;99.90;;;;;;5076083;28;20840;-59
2021/07/07 06:34:32;;;;;;;0.60;0.40;;;19.20;99.90;;;;;;5091174;28;20436;-59
2021/07/07 06:37:00;;;;;;;0.60;0.30;;;19.10;99.90;;;;;;5087503;28;20530;-59
2021/07/07 06:39:27;;;;;;;1.30;0.30;;;19.00;99.90;;;;;;5094781;28;20880;-59
2021/07/07 06:41:54;;;;;;;0.50;0.30;;;18.90;99.90;;;;;;5092991;28;20800;-58
2021/07/07 06:44:21;;;;;;;0.60;0.20;;;18.90;99.90;;;;;;5074728;28;20842;-58
2021/07/07 06:46:48;;;;;;;0.82;0.30;;;18.90;99.90;;;;;;5074474;28;20521;-58
2021/07/07 06:49:16;;;;;;;0.40;0.30;;;18.80;99.90;;;;;;5077955;28;20461;-59
2021/07/07 06:51:43;;;;;;;0.60;0.30;;;19.00;99.90;;;;;;5085537;28;20542;-58
2021/07/07 06:54:10;;;;;;;0.60;0.30;;;19.00;99.90;;;;;;5084458;28;20426;-58
2021/07/07 06:56:37;;;;;;;0.60;0.30;;;19.00;99.90;;;;;;5091121;28;20429;-58
2021/07/07 06:59:04;;;;;;;0.60;0.30;;;18.80;99.90;;;;;;5089869;28;20445;-58
2021/07/07 07:01:33;;;;;;;0.70;0.30;;;18.70;99.90;;;;;;5094593;28;20517;-57
2021/07/07 07:04:00;;;;;;;0.60;0.30;;;18.70;99.90;;;;;;5085321;28;20917;-58
2021/07/07 07:06:29;;;;;;;0.50;0.30;;;18.80;99.90;;;;;;5089112;28;20468;-58
2021/07/07 07:08:56;;;;;;;1.00;0.30;;;18.70;99.90;;;;;;5083114;28;20906;-58
2021/07/07 07:11:23;;;;;;;1.70;0.40;;;18.70;99.90;;;;;;5074938;28;20901;-58
2021/07/07 07:13:50;;;;;;;0.50;0.30;;;18.60;99.90;;;;;;5073150;28;20427;-59
2021/07/07 07:16:17;;;;;;;0.50;0.30;;;18.40;99.90;;;;;;5074687;28;20467;-57
2021/07/07 07:18:44;;;;;;;0.60;0.40;;;18.40;99.90;;;;;;5072689;28;20419;-57
2021/07/07 07:21:11;;;;;;;0.70;0.40;;;18.40;99.90;;;;;;5074695;28;20692;-57
2021/07/07 07:23:39;;;;;;;0.50;0.30;;;18.30;99.90;;;;;;5093366;28;20709;-60
2021/07/07 07:26:06;;;;;;;1.17;0.40;;;18.30;99.90;;;;;;5093823;28;20429;-63
2021/07/07 07:28:33;;;;;;;0.40;0.30;;;18.30;99.90;;;;;;5091158;28;20460;-57
2021/07/07 07:31:00;;;;;;;1.70;0.50;;;18.20;99.90;;;;;;5080697;28;20527;-56
2021/07/07 07:33:27;;;;;;;3.25;0.40;;;18.30;99.90;;;;;;5076343;28;20444;-59
2021/07/07 07:35:54;;;;;;;0.60;0.30;;;18.50;99.90;;;;;;5079627;28;20472;-58
2021/07/07 07:38:28;;;;;;;1.90;0.30;;;18.60;99.90;;;;;;5086225;28;20513;-57
2021/07/07 07:40:56;;;;;;;0.60;0.30;;;18.90;99.90;;;;;;5079412;28;20839;-58
2021/07/07 07:43:24;;;;;;;0.60;0.30;;;19.10;99.90;;;;;;5074318;28;20474;-58
2021/07/07 07:45:52;;;;;;;0.95;0.40;;;19.10;99.90;;;;;;5079979;28;20431;-58
2021/07/07 07:48:19;;;;;;;1.50;0.30;;;19.10;99.90;;;;;;5086599;28;20440;-59
2021/07/07 07:50:46;;;;;;;0.80;0.30;;;19.20;99.90;;;;;;5072919;28;20735;-59
2021/07/07 07:53:13;;;;;;;0.77;0.30;;;19.20;99.90;;;;;;5079533;28;20786;-58
2021/07/07 07:55:40;;;;;;;0.70;0.30;;;19.30;99.90;;;;;;5091862;28;20465;-58
2021/07/07 07:58:09;;;;;;;0.55;0.30;;;19.40;99.90;;;;;;5092066;28;20863;-58
2021/07/07 08:00:35;;;;;;;0.70;0.30;;;19.60;99.90;;;;;;5085339;28;20512;-58
2021/07/07 08:03:02;;;;;;;1.70;0.40;;;19.70;99.90;;;;;;5086431;28;20447;-58
2021/07/07 08:05:29;;;;;;;1.50;0.30;;;19.90;99.90;;;;;;5081171;28;20487;-58
2021/07/07 08:08:01;;;;;;;5.40;0.50;;;20.00;99.90;;;;;;5075585;28;20454;-49
2021/07/07 08:10:28;;;;;;;0.80;0.35;;;20.10;99.90;;;;;;5079812;28;20433;-51
2021/07/07 08:12:56;;;;;;;1.60;0.30;;;20.10;99.90;;;;;;5072845;28;20503;-52
2021/07/07 08:15:25;;;;;;;0.90;0.38;;;19.90;99.90;;;;;;5076111;28;20463;-56
2021/07/07 08:17:53;;;;;;;1.70;0.40;;;19.70;99.90;;;;;;5084648;28;20518;-56
2021/07/07 08:20:20;;;;;;;1.07;0.30;;;19.50;99.90;;;;;;5088993;28;20894;-57
2021/07/07 08:22:48;;;;;;;0.60;0.40;;;19.50;99.90;;;;;;5093565;28;20475;-58
2021/07/07 08:25:15;;;;;;;0.50;0.28;;;19.50;99.90;;;;;;5088892;28;20490;-57
2021/07/07 08:27:43;;;;;;;0.63;0.30;;;19.50;99.90;;;;;;5095595;28;20535;-57
2021/07/07 08:30:12;;;;;;;1.10;0.30;;;19.60;99.90;;;;;;5091927;28;20506;-58
2021/07/07 08:32:40;;;;;;;0.60;0.40;;;19.50;99.90;;;;;;5082025;28;20509;-57
2021/07/07 08:35:09;;;;;;;1.00;0.40;;;19.30;99.90;;;;;;5093191;28;20469;-58
2021/07/07 08:37:36;;;;;;;0.80;0.40;;;19.10;99.90;;;;;;5091838;28;20452;-57
2021/07/07 08:40:04;;;;;;;0.90;0.30;;;18.90;99.90;;;;;;5079565;28;20852;-58
2021/07/07 08:42:34;;;;;;;0.55;0.30;;;18.90;99.90;;;;;;5073112;28;20513;-59
2021/07/07 08:45:03;;;;;;;1.90;0.30;;;19.10;99.90;;;;;;5075049;28;20429;-57
2021/07/07 08:47:30;;;;;;;0.60;0.35;;;19.30;99.90;;;;;;5074779;28;20516;-58
2021/07/07 08:49:58;;;;;;;1.08;0.40;;;19.50;99.90;;;;;;5072960;28;20893;-58
2021/07/07 08:52:25;;;;;;;1.10;0.30;;;19.60;99.90;;;;;;5077692;28;20429;-58
2021/07/07 08:54:52;;;;;;;0.90;0.40;;;19.50;99.90;;;;;;5090028;28;20495;-58
2021/07/07 08:57:28;;;;;;;1.07;0.40;;;19.50;99.90;;;;;;5085418;28;20914;-60
2021/07/07 08:59:55;;;;;;;0.60;0.40;;;19.60;99.90;;;;;;5089349;28;20741;-58
2021/07/07 09:02:23;;;;;;;1.55;0.50;;;19.70;99.90;;;;;;5085135;28;20734;-58
2021/07/07 09:04:50;;;;;;;0.70;0.40;;;19.80;99.90;;;;;;5089813;28;20417;-58
2021/07/07 09:07:23;;;;;;;0.70;0.40;;;20.10;99.90;;;;;;5088320;28;20658;-58
2021/07/07 09:09:52;;;;;;;1.67;0.43;;;20.30;99.90;;;;;;5085430;28;20435;-58
2021/07/07 09:12:22;;;;;;;0.60;0.40;;;20.30;99.90;;;;;;5075034;28;20534;-58
2021/07/07 09:14:52;;;;;;;0.70;0.40;;;20.10;99.90;;;;;;5088580;28;20535;-58
2021/07/07 09:17:21;;;;;;;1.70;0.40;;;20.10;99.90;;;;;;5083456;28;20538;-57
2021/07/07 09:19:48;;;;;;;0.90;0.50;;;20.10;99.90;;;;;;5085887;28;20430;-58
2021/07/07 09:22:16;;;;;;;1.58;0.40;;;20.20;99.90;;;;;;5078933;28;20806;-57
2021/07/07 09:24:48;;;;;;;0.70;0.40;;;20.10;99.90;;;;;;5073505;28;20427;-58
2021/07/07 09:27:17;;;;;;;0.70;0.40;;;19.90;99.90;;;;;;5070709;28;20463;-58
2021/07/07 09:29:49;;;;;;;0.98;0.40;;;19.90;99.90;;;;;;5088277;28;20553;-57
2021/07/07 09:32:18;;;;;;;0.88;0.47;;;20.00;99.90;;;;;;5087473;28;20555;-56
2021/07/07 09:34:48;;;;;;;0.90;0.50;;;19.90;99.90;;;;;;5087989;28;20804;-56
2021/07/07 09:37:26;;;;;;;1.23;0.50;;;20.00;99.90;;;;;;5079923;28;20467;-57
2021/07/07 09:39:56;;;;;;;0.90;0.32;;;20.00;99.90;;;;;;5070035;28;20423;-58
2021/07/07 09:42:25;;;;;;;1.67;0.50;;;20.00;99.90;;;;;;5070386;28;20494;-56
2021/07/07 09:44:52;;;;;;;1.30;0.40;;;19.90;99.90;;;;;;5072146;28;20438;-56
2021/07/07 09:47:20;;;;;;;1.60;0.38;;;20.00;99.90;;;;;;5089213;28;20725;-57
2021/07/07 09:49:48;;;;;;;1.00;0.30;;;20.00;99.90;;;;;;5075742;28;20420;-57
2021/07/07 09:52:17;;;;;;;1.23;0.30;;;20.10;99.90;;;;;;5078293;28;20744;-58
2021/07/07 09:54:45;;;;;;;1.30;0.40;;;20.20;99.90;;;;;;5086148;28;20461;-57
2021/07/07 09:57:14;;;;;;;0.80;0.40;;;20.30;99.90;;;;;;5088910;28;20433;-57
2021/07/07 09:59:41;;;;;;;2.00;0.60;;;20.20;99.90;;;;;;5091235;28;20508;-55
2021/07/07 10:02:08;;;;;;;0.88;0.40;;;20.10;99.90;;;;;;5087794;28;20431;-55
2021/07/07 10:04:38;;;;;;;0.80;0.30;;;20.10;99.90;;;;;;5084635;28;20919;-57
2021/07/07 10:07:07;;;;;;;3.05;0.47;;;20.10;99.90;;;;;;5079067;28;20440;-56
2021/07/07 10:09:35;;;;;;;1.10;0.50;;;20.10;99.90;;;;;;5075595;28;20946;-58
2021/07/07 10:12:03;;;;;;;0.80;0.50;;;20.10;99.90;;;;;;5071062;28;20477;-57
2021/07/07 10:14:31;;;;;;;0.60;0.40;;;20.10;99.90;;;;;;5077343;28;20430;-57
2021/07/07 10:16:59;;;;;;;0.63;0.35;;;20.10;99.90;;;;;;5079716;28;20604;-57
2021/07/07 10:19:26;;;;;;;1.10;0.30;;;20.30;99.90;;;;;;5079282;28;20548;-57
2021/07/07 10:21:55;;;;;;;0.70;0.30;;;20.50;99.90;;;;;;5087840;28;20479;-58
2021/07/07 10:24:25;;;;;;;1.50;0.40;;;20.60;99.90;;;;;;5073012;28;20928;-58
2021/07/07 10:26:57;;;;;;;0.50;0.30;;;20.70;99.90;;;;;;5076612;28;20807;-59
2021/07/07 10:29:25;;;;;;;0.70;0.40;;;20.90;99.90;;;;;;5088555;28;20428;-57
2021/07/07 10:31:55;;;;;;;1.50;0.50;;;21.00;99.90;;;;;;5084421;28;20509;-59
2021/07/07 10:34:23;;;;;;;1.10;0.40;;;21.00;99.90;;;;;;5072492;28;20493;-59
2021/07/07 10:36:51;;;;;;;0.90;0.40;;;21.00;99.90;;;;;;5084710;28;20885;-59
2021/07/07 10:39:18;;;;;;;0.80;0.40;;;21.10;99.90;;;;;;5084338;28;20416;-57
2021/07/07 10:41:51;;;;;;;1.60;0.40;;;20.90;99.90;;;;;;5070574;28;20534;-58
2021/07/07 10:44:52;;;;;;;1.00;0.50;;;21.10;99.90;;;;;;5082419;28;20581;-59
2021/07/07 10:47:37;;;;;;;1.77;0.60;;;21.20;99.90;;;;;;5080544;28;20437;-58
2021/07/07 10:50:06;;;;;;;0.98;0.52;;;21.10;99.90;;;;;;5074621;28;20415;-60
2021/07/07 10:52:38;;;;;;;1.00;0.40;;;21.00;99.90;;;;;;5072681;28;20502;-56
2021/07/07 10:55:07;;;;;;;2.00;0.45;;;20.90;99.90;;;;;;5087025;28;20510;-58
2021/07/07 10:57:36;;;;;;;0.50;0.40;;;21.00;99.90;;;;;;5076762;28;20519;-57
2021/07/07 11:00:07;;;;;;;0.82;0.40;;;20.90;99.90;;;;;;5075869;28;20518;-58
2021/07/07 11:02:35;;;;;;;0.67;0.40;;;21.20;99.90;;;;;;5082952;28;20509;-57
2021/07/07 11:05:06;;;;;;;1.10;0.30;;;21.10;99.90;;;;;;5080061;28;20906;-58
2021/07/07 11:07:39;;;;;;;0.80;0.43;;;21.10;99.90;;;;;;5082613;28;20422;-58
2021/07/07 11:10:12;;;;;;;0.90;0.40;;;21.20;99.90;;;;;;5082880;28;20424;-58
2021/07/07 11:13:13;;;;;;;2.85;0.40;;;21.20;99.90;;;;;;5089284;28;20489;-58
2021/07/07 11:15:41;;;;;;;0.57;0.30;;;21.40;99.90;;;;;;5092259;28;20466;-58
2021/07/07 11:18:21;;;;;;;1.30;0.50;;;21.60;99.90;;;;;;5089167;28;20414;-58
2021/07/07 11:21:08;;;;;;;1.20;0.40;;;21.80;99.90;;;;;;5083218;28;20467;-57
2021/07/07 11:23:38;;;;;;;1.30;0.40;;;22.00;99.90;;;;;;5087255;28;20414;-59
2021/07/07 11:26:05;;;;;;;0.65;0.30;;;22.20;99.90;;;;;;5088632;28;20425;-58
2021/07/07 11:28:32;;;;;;;0.50;0.30;;;22.20;99.90;;;;;;5080092;28;20443;-58
2021/07/07 11:30:59;;;;;;;0.40;0.30;;;22.20;99.90;;;;;;5076370;28;20522;-58
2021/07/07 11:33:28;;;;;;;0.50;0.30;;;22.40;99.90;;;;;;5085668;28;20481;-58
2021/07/07 11:35:56;;;;;;;0.60;0.30;;;22.40;99.90;;;;;;5075239;28;20465;-59
2021/07/07 11:38:25;;;;;;;0.65;0.30;;;22.70;99.90;;;;;;5073096;28;20796;-58
2021/07/07 11:40:53;;;;;;;0.60;0.30;;;22.80;99.90;;;;;;5072254;28;20431;-58
2021/07/07 11:43:24;;;;;;;0.40;0.30;;;22.60;99.90;;;;;;5070323;28;20477;-58
2021/07/07 11:45:56;;;;;;;1.00;0.40;;;22.80;99.90;;;;;;5074836;28;20434;-58
2021/07/07 11:48:27;;;;;;;0.90;0.38;;;22.90;99.90;;;;;;5084851;28;20885;-59
2021/07/07 11:50:58;;;;;;;0.80;0.30;;;22.90;99.90;;;;;;5085168;28;20436;-58
2021/07/07 11:53:34;;;;;;;0.50;0.30;;;23.10;99.90;;;;;;5076270;28;20433;-58
2021/07/07 11:56:04;;;;;;;0.50;0.30;;;22.90;99.90;;;;;;5082617;28;20525;-59
2021/07/07 11:58:37;;;;;;;0.60;0.30;;;23.00;99.90;;;;;;5072485;28;20513;-57
2021/07/07 12:01:07;;;;;;;1.70;0.30;;;22.80;99.90;;;;;;5089881;28;20452;-58
2021/07/07 12:03:34;;;;;;;0.60;0.30;;;22.90;99.90;;;;;;5084354;28;20639;-58
2021/07/07 12:06:05;;;;;;;0.60;0.35;;;23.10;99.90;;;;;;5071029;28;20427;-62
2021/07/07 12:08:35;;;;;;;0.50;0.30;;;23.10;99.90;;;;;;5085960;28;20510;-61
2021/07/07 12:11:07;;;;;;;0.60;0.40;;;22.90;99.90;;;;;;5091692;28;20866;-62
2021/07/07 12:13:36;;;;;;;0.88;0.30;;;22.80;99.90;;;;;;5092414;28;20433;-61
2021/07/07 12:16:24;;;;;;;0.90;0.30;;;23.10;99.90;;;;;;5086072;28;20433;-62
2021/07/07 12:18:53;;;;;;;0.50;0.30;;;23.00;99.90;;;;;;5071629;28;20882;-61
2021/07/07 12:21:43;;;;;;;0.40;0.20;;;23.00;99.90;;;;;;5092845;28;20532;-61
2021/07/07 12:24:11;;;;;;;0.40;0.30;;;23.10;99.90;;;;;;5093199;28;20413;-60
2021/07/07 12:26:40;;;;;;;0.50;0.30;;;23.20;99.90;;;;;;5093371;28;20532;-60
2021/07/07 12:29:10;;;;;;;0.75;0.30;;;23.00;99.90;;;;;;5088509;28;20466;-60
2021/07/07 12:31:39;;;;;;;0.50;0.30;;;22.70;99.90;;;;;;5073483;28;20456;-60
2021/07/07 12:34:07;;;;;;;0.80;0.30;;;22.50;99.90;;;;;;5092637;28;20505;-60
2021/07/07 12:36:38;;;;;;;0.70;0.25;;;22.40;99.90;;;;;;5094851;28;20418;-60
2021/07/07 12:39:23;;;;;;;0.50;0.30;;;22.30;99.90;;;;;;5093133;28;20445;-60
2021/07/07 12:41:55;;;;;;;0.40;0.20;;;22.30;99.90;;;;;;5092777;28;20426;-60
2021/07/07 12:44:30;;;;;;;1.60;0.30;;;22.40;99.90;;;;;;5092146;28;20500;-60
2021/07/07 12:47:00;;;;;;;0.70;0.30;;;22.50;99.90;;;;;;5091792;28;20872;-60
2021/07/07 12:49:48;;;;;;;0.50;0.30;;;22.50;99.90;;;;;;5088637;28;20897;-60
2021/07/07 12:52:25;;;;;;;0.50;0.30;;;22.60;99.90;;;;;;5090996;28;20472;-60
2021/07/07 12:55:07;;;;;;;0.57;0.32;;;23.30;99.90;;;;;;5089979;28;20434;-60